Time;durP1;ratioP1;P1;durP2;ratioP2;P2;SDS_P1;SDS_P2;PMS_P1;PMS_P2;Temp;Humidity;BMP_temperature;BMP_pressure;BME280_temperature;BME280_humidity;BME280_pressure;Samples;Min_cycle;Max_cycle;Signal;HPM_P1;HPM_P2
2021/10/22 00:03:11;;;;;;;0.93;0.43;;;;;;;12.73;64.84;96005.34;6434022;46;20095;-69
2021/10/22 00:08:14;;;;;;;2.30;0.50;;;;;;;12.62;66.86;96024.63;6433804;46;20100;-69
2021/10/22 00:13:16;;;;;;;0.63;0.55;;;;;;;12.19;71.79;96028.97;6434106;46;20094;-69
2021/10/22 00:18:20;;;;;;;1.52;0.60;;;;;;;11.58;76.57;96055.59;6433770;46;20085;-69
2021/10/22 00:23:23;;;;;;;1.05;0.70;;;;;;;11.22;82.70;96066.97;6433919;46;20094;-70
2021/10/22 00:28:25;;;;;;;3.17;0.75;;;;;;;10.91;83.47;96070.09;6434209;46;20235;-69
2021/10/22 00:33:28;;;;;;;2.22;0.90;;;;;;;11.01;84.24;96076.34;6433774;46;20106;-69
2021/10/22 00:38:31;;;;;;;1.40;0.90;;;;;;;10.92;84.22;96073.63;6433637;46;20095;-69
2021/10/22 00:43:47;;;;;;;0.77;0.77;;;;;;;10.96;84.11;96083.28;6434073;46;20086;-71
2021/10/22 00:48:50;;;;;;;2.22;0.73;;;;;;;11.00;84.36;96085.84;6433940;46;20535;-70
2021/10/22 00:53:52;;;;;;;1.45;0.80;;;;;;;10.81;87.66;96085.19;6433653;46;20090;-71
2021/10/22 00:58:56;;;;;;;1.35;0.68;;;;;;;10.79;89.62;96074.63;6433327;46;20649;-70
2021/10/22 01:03:58;;;;;;;2.85;1.05;;;;;;;10.33;91.78;96069.78;6433515;46;20129;-68
2021/10/22 01:09:03;;;;;;;1.25;1.00;;;;;;;10.55;92.08;96073.06;6433355;46;20090;-68
2021/10/22 01:14:07;;;;;;;0.93;0.85;;;;;;;10.66;91.91;96070.56;6433392;46;20109;-68
2021/10/22 01:19:14;;;;;;;1.00;1.00;;;;;;;10.82;91.22;96073.69;6433426;46;20100;-71
2021/10/22 01:24:18;;;;;;;0.85;0.75;;;;;;;10.51;92.53;96069.72;6433764;46;20314;-69
2021/10/22 01:29:20;;;;;;;1.88;0.75;;;;;;;10.52;93.79;96079.50;6433599;46;20091;-70
2021/10/22 01:34:23;;;;;;;1.45;0.80;;;;;;;10.70;93.69;96077.44;6433196;46;20095;-68
2021/10/22 01:39:25;;;;;;;1.25;0.93;;;;;;;10.41;95.75;96082.03;6420880;46;20094;-71
2021/10/22 01:44:28;;;;;;;7.97;0.93;;;;;;;10.65;95.38;96085.63;6433005;46;20108;-71
2021/10/22 01:49:30;;;;;;;0.82;0.82;;;;;;;10.70;95.13;96084.94;6435527;46;20104;-71
2021/10/22 01:54:32;;;;;;;2.53;1.00;;;;;;;11.00;93.48;96100.44;6437569;46;20100;-71
2021/10/22 01:59:35;;;;;;;1.50;1.15;;;;;;;11.00;93.82;96102.44;6436130;46;20525;-71
2021/10/22 02:04:37;;;;;;;3.03;1.08;;;;;;;10.96;93.87;96099.09;6435947;46;20631;-70
2021/10/22 02:09:39;;;;;;;1.23;0.77;;;;;;;10.79;95.22;96096.72;6434461;46;20095;-71
2021/10/22 02:14:42;;;;;;;1.65;0.90;;;;;;;10.71;95.81;96106.63;6433353;46;20095;-70
2021/10/22 02:19:44;;;;;;;126.40;8.38;;;;;;;10.34;98.61;96116.28;6433424;46;20090;-70
2021/10/22 02:24:47;;;;;;;0.85;0.85;;;;;;;10.36;97.90;96102.75;6432974;46;20091;-69
2021/10/22 02:29:49;;;;;;;1.42;1.10;;;;;;;10.24;97.90;96109.25;6420171;46;20108;-70
2021/10/22 02:34:52;;;;;;;0.82;0.82;;;;;;;10.22;98.02;96130.28;6432914;46;20196;-70
2021/10/22 02:39:54;;;;;;;1.38;0.80;;;;;;;9.99;98.89;96115.13;6433076;46;20090;-70
2021/10/22 02:44:56;;;;;;;0.80;0.80;;;;;;;10.22;98.40;96128.28;6432822;46;20099;-70
2021/10/22 02:49:58;;;;;;;1.55;1.08;;;;;;;10.08;99.18;96128.91;6432907;46;20086;-70
2021/10/22 02:55:01;;;;;;;1.73;1.17;;;;;;;10.17;98.86;96141.94;6432535;46;20091;-70
2021/10/22 03:00:06;;;;;;;0.85;0.82;;;;;;;9.84;99.90;96136.28;6419704;46;20094;-71
2021/10/22 03:05:10;;;;;;;2.58;0.90;;;;;;;9.70;100.00;96151.47;6432821;46;20103;-70
2021/10/22 03:10:13;;;;;;;0.95;0.60;;;;;;;9.31;99.73;96146.88;6432554;46;20665;-70
2021/10/22 03:15:16;;;;;;;0.73;0.70;;;;;;;8.98;99.41;96145.91;6431680;46;20086;-70
2021/10/22 03:20:18;;;;;;;0.75;0.73;;;;;;;9.04;98.96;96142.09;6434506;46;20113;-69
2021/10/22 03:25:21;;;;;;;1.88;0.52;;;;;;;9.10;98.28;96148.53;6434404;46;20086;-70
2021/10/22 03:30:23;;;;;;;0.57;0.57;;;;;;;9.16;98.71;96156.94;6434112;46;20086;-70
2021/10/22 03:35:26;;;;;;;0.85;0.73;;;;;;;8.86;99.46;96160.56;6434505;46;20108;-71
2021/10/22 03:40:28;;;;;;;0.40;0.40;;;;;;;9.19;98.31;96164.31;6434041;46;20089;-70
2021/10/22 03:45:31;;;;;;;0.60;0.60;;;;;;;9.08;96.25;96175.78;6420872;46;20107;-71
2021/10/22 03:50:34;;;;;;;0.73;0.73;;;;;;;8.79;96.13;96180.91;6434625;46;20090;-70
2021/10/22 03:55:36;;;;;;;0.63;0.63;;;;;;;8.70;97.07;96180.09;6434072;46;20090;-70
2021/10/22 04:00:38;;;;;;;0.70;0.70;;;;;;;8.62;96.63;96172.09;6434130;46;20104;-70
2021/10/22 04:05:45;;;;;;;0.93;0.93;;;;;;;8.63;96.02;96192.94;6433993;46;20082;-70
2021/10/22 04:10:48;;;;;;;1.13;1.02;;;;;;;8.46;95.18;96183.34;6434118;46;20094;-70
2021/10/22 04:15:50;;;;;;;1.52;1.38;;;;;;;8.28;95.74;96188.75;6420873;46;20085;-70
2021/10/22 04:20:54;;;;;;;3.55;1.75;;;;;;;8.20;95.79;96192.19;6420735;46;20090;-71
2021/10/22 04:25:56;;;;;;;1.30;1.25;;;;;;;8.04;97.15;96190.41;6408375;46;20296;-70
2021/10/22 04:30:59;;;;;;;1.70;1.45;;;;;;;8.31;96.52;96182.34;6433715;46;20213;-70
2021/10/22 04:36:01;;;;;;;1.20;1.10;;;;;;;8.05;96.58;96197.44;6420685;46;20082;-70
2021/10/22 04:41:04;;;;;;;1.50;1.40;;;;;;;8.14;96.43;96186.50;6408478;46;20086;-70
2021/10/22 04:46:06;;;;;;;5.55;2.60;;;;;;;7.97;95.93;96193.41;6420442;46;20750;-70
2021/10/22 04:51:09;;;;;;;3.47;1.55;;;;;;;8.24;96.14;96204.59;6408363;46;20133;-69
2021/10/22 04:56:12;;;;;;;2.88;1.75;;;;;;;8.00;95.93;96194.50;6420239;46;20678;-69
2021/10/22 05:01:14;;;;;;;3.78;1.88;;;;;;;7.82;96.71;96206.16;6420584;46;20701;-69
2021/10/22 05:06:17;;;;;;;3.95;1.33;;;;;;;7.90;97.73;96201.94;6420259;46;20099;-70
2021/10/22 05:11:19;;;;;;;1.70;1.60;;;;;;;7.63;98.49;96209.94;6434060;46;20192;-70
2021/10/22 05:16:23;;;;;;;2.63;1.50;;;;;;;7.68;98.99;96201.16;6419905;46;20191;-70
2021/10/22 05:21:25;;;;;;;7.18;1.83;;;;;;;7.73;98.93;96211.59;6407514;46;20090;-69
2021/10/22 05:26:28;;;;;;;10.95;2.25;;;;;;;7.73;99.20;96225.34;6433031;46;20098;-69
2021/10/22 05:31:30;;;;;;;3.75;1.88;;;;;;;7.62;98.66;96222.19;6407872;46;20087;-70
2021/10/22 05:36:33;;;;;;;5.20;2.00;;;;;;;7.53;99.29;96220.09;6419937;46;20082;-69
2021/10/22 05:41:35;;;;;;;6.05;1.75;;;;;;;7.75;99.17;96217.41;6419855;46;20576;-69
2021/10/22 05:46:38;;;;;;;4.95;1.45;;;;;;;7.80;96.98;96227.84;6407324;46;20110;-70
2021/10/22 05:51:40;;;;;;;2.95;1.90;;;;;;;7.54;95.61;96229.13;6419465;46;20626;-69
2021/10/22 05:56:43;;;;;;;1.40;1.25;;;;;;;7.90;96.14;96232.97;6394689;46;20345;-70
2021/10/22 06:01:46;;;;;;;3.58;1.33;;;;;;;7.98;95.58;96239.00;6419852;46;20091;-69
2021/10/22 06:06:48;;;;;;;5.47;1.55;;;;;;;7.84;94.83;96243.00;6432850;46;20644;-71
2021/10/22 06:11:52;;;;;;;5.18;1.60;;;;;;;8.03;94.36;96240.41;6433534;46;20099;-70
2021/10/22 06:16:58;;;;;;;1.30;1.20;;;;;;;8.34;91.97;96247.53;6433208;46;20170;-69
2021/10/22 06:27:10;;;;;;;8.17;1.30;;;;;;;8.84;91.41;96262.19;6432623;46;20139;-70
2021/10/22 06:32:13;;;;;;;3.28;1.42;;;;;;;8.84;91.57;96262.97;6432645;46;20385;-69
2021/10/22 06:37:15;;;;;;;2.42;1.23;;;;;;;9.06;90.27;96271.16;6419300;46;20170;-69
2021/10/22 06:42:17;;;;;;;1.98;0.90;;;;;;;9.02;90.67;96273.28;6419919;46;20108;-66
2021/10/22 06:47:20;;;;;;;4.25;1.10;;;;;;;8.96;90.39;96291.63;6433103;46;20091;-69
2021/10/22 06:52:22;;;;;;;3.10;1.35;;;;;;;8.46;92.31;96276.19;6432605;46;20094;-69
2021/10/22 06:57:25;;;;;;;2.90;1.08;;;;;;;8.55;90.97;96296.31;6433692;46;20116;-69
2021/10/22 07:02:27;;;;;;;3.78;1.17;;;;;;;8.91;88.12;96283.97;6434385;46;20091;-70
2021/10/22 07:07:29;;;;;;;4.13;2.10;;;;;;;9.06;88.21;96296.75;6434841;46;20970;-69
2021/10/22 07:12:32;;;;;;;4.15;1.40;;;;;;;9.29;87.74;96298.97;6439175;46;20245;-69
2021/10/22 07:17:35;;;;;;;6.43;2.35;;;;;;;9.23;86.33;96311.03;6443083;46;20086;-69
2021/10/22 07:22:47;;;;;;;6.43;1.77;;;;;;;9.02;86.42;96311.88;6447925;46;20103;-70
2021/10/22 07:27:51;;;;;;;4.45;1.50;;;;;;;8.81;88.42;96324.47;6437281;46;20192;-69
2021/10/22 07:32:53;;;;;;;3.55;1.50;;;;;;;8.73;87.31;96333.44;6437196;46;20128;-71
2021/10/22 07:37:56;;;;;;;4.50;1.60;;;;;;;8.88;88.11;96337.22;6434528;46;20139;-71
2021/10/22 07:42:58;;;;;;;5.18;2.50;;;;;;;8.86;90.88;96354.22;6433382;46;20081;-70
2021/10/22 07:48:01;;;;;;;3.03;1.63;;;;;;;8.94;89.92;96357.44;6433501;46;20643;-70
2021/10/22 07:53:05;;;;;;;2.50;1.45;;;;;;;9.02;89.11;96364.25;6433970;46;20100;-70
2021/10/22 07:58:07;;;;;;;3.80;1.92;;;;;;;8.88;88.35;96381.31;6433611;46;20094;-70
2021/10/22 08:03:10;;;;;;;6.50;1.38;;;;;;;9.51;84.75;96387.16;6433646;46;20104;-70
2021/10/22 08:08:13;;;;;;;2.35;1.00;;;;;;;9.82;87.05;96401.69;6431769;46;20191;-69
2021/10/22 08:13:16;;;;;;;1.90;1.00;;;;;;;9.59;86.59;96404.97;6433461;46;20081;-70
2021/10/22 08:18:20;;;;;;;3.33;1.38;;;;;;;10.10;84.33;96400.53;6433105;46;20228;-71
2021/10/22 08:23:23;;;;;;;2.90;1.75;;;;;;;9.69;83.63;96406.53;6433518;46;20095;-70
2021/10/22 08:28:25;;;;;;;2.65;1.42;;;;;;;9.44;84.50;96409.50;6433768;46;20090;-69
2021/10/22 08:33:28;;;;;;;1.30;1.20;;;;;;;9.77;82.07;96413.31;6433906;46;20086;-70
2021/10/22 08:38:31;;;;;;;3.65;1.63;;;;;;;10.10;83.13;96411.59;6433061;46;20086;-69
2021/10/22 08:43:34;;;;;;;3.70;1.98;;;;;;;10.12;81.63;96424.19;6433638;46;20689;-71
2021/10/22 08:48:37;;;;;;;4.40;1.58;;;;;;;10.39;81.41;96435.28;6433359;46;20090;-69
2021/10/22 08:53:40;;;;;;;8.88;1.67;;;;;;;10.29;79.40;96437.25;6432234;46;20081;-72
2021/10/22 08:58:42;;;;;;;10.35;1.60;;;;;;;10.52;78.62;96442.22;6433252;46;20108;-70
2021/10/22 09:03:45;;;;;;;3.10;1.08;;;;;;;10.29;79.76;96434.50;6433199;46;20082;-72
2021/10/22 09:08:54;;;;;;;2.75;1.45;;;;;;;10.40;76.34;96445.88;6433240;46;20090;-71
2021/10/22 09:14:04;;;;;;;1.90;1.48;;;;;;;10.06;80.66;96443.31;6432947;46;20122;-70
2021/10/22 09:19:08;;;;;;;3.72;1.92;;;;;;;10.08;81.58;96444.41;6433282;46;20082;-70
2021/10/22 09:24:20;;;;;;;3.63;1.13;;;;;;;10.50;80.73;96466.00;6432932;46;20085;-69
2021/10/22 09:29:29;;;;;;;2.85;1.50;;;;;;;10.62;81.80;96467.88;6432752;46;20549;-71
2021/10/22 09:34:33;;;;;;;2.90;1.58;;;;;;;10.62;79.01;96473.38;6432677;46;20533;-70
2021/10/22 09:39:38;;;;;;;7.07;1.80;;;;;;;10.42;79.90;96478.56;6431985;46;20125;-69
2021/10/22 09:44:43;;;;;;;3.10;1.85;;;;;;;10.70;79.65;96469.09;6433208;46;20086;-69
2021/10/22 09:49:50;;;;;;;6.72;1.92;;;;;;;11.10;75.58;96469.72;6420170;46;20099;-70
2021/10/22 09:55:12;;;;;;;4.63;1.60;;;;;;;11.49;76.23;96479.81;6433359;46;20095;-70
2021/10/22 10:00:22;;;;;;;1.42;1.33;;;;;;;11.36;74.07;96487.53;6432753;46;20086;-70
2021/10/22 10:05:26;;;;;;;4.65;1.73;;;;;;;11.37;74.01;96482.75;6432745;46;20244;-70
2021/10/22 10:10:28;;;;;;;2.10;1.77;;;;;;;12.30;75.66;96480.03;6432796;46;20648;-69
2021/10/22 10:15:33;;;;;;;2.28;1.80;;;;;;;11.80;72.06;96489.91;6433850;46;20108;-71
2021/10/22 10:20:35;;;;;;;1.52;1.40;;;;;;;12.32;70.81;96485.88;6431453;46;20546;-71
2021/10/22 10:25:38;;;;;;;2.40;1.80;;;;;;;11.39;72.69;96488.59;6432534;46;20112;-71
2021/10/22 10:30:41;;;;;;;2.53;1.35;;;;;;;12.12;70.64;96472.56;6433560;46;20656;-70
2021/10/22 10:35:44;;;;;;;2.22;1.50;;;;;;;12.04;67.87;96474.91;6430710;46;20108;-70
2021/10/22 10:40:46;;;;;;;1.88;1.23;;;;;;;11.53;68.46;96485.94;6428954;46;20655;-69
2021/10/22 10:45:49;;;;;;;1.85;1.45;;;;;;;11.94;67.02;96487.25;6433034;46;20103;-71
2021/10/22 10:51:03;;;;;;;7.53;1.65;;;;;;;11.71;63.65;96487.94;6433155;46;20095;-70
2021/10/22 10:56:27;;;;;;;1.80;1.65;;;;;;;11.55;63.14;96496.56;6429064;46;20523;-72
2021/10/22 11:01:39;;;;;;;2.80;1.33;;;;;;;12.35;64.73;96479.41;6421861;46;20855;-70
2021/10/22 11:06:52;;;;;;;5.15;2.08;;;;;;;12.29;65.08;96478.47;6433445;46;20709;-73
2021/10/22 11:12:04;;;;;;;2.72;1.40;;;;;;;12.35;64.35;96485.69;6413291;46;20095;-71
2021/10/22 11:17:09;;;;;;;2.38;1.30;;;;;;;11.72;64.97;96483.94;6431851;46;20086;-71
2021/10/22 11:22:23;;;;;;;2.90;1.27;;;;;;;11.81;64.72;96466.53;6418420;46;20224;-72
2021/10/22 11:27:25;;;;;;;2.40;1.10;;;;;;;11.79;62.06;96474.53;6420408;46;20099;-72
2021/10/22 11:32:30;;;;;;;3.10;1.35;;;;;;;11.40;61.04;96465.22;6431036;46;20077;-71
2021/10/22 11:37:39;;;;;;;1.67;1.30;;;;;;;12.44;63.53;96463.47;6433460;46;20082;-71
2021/10/22 11:42:42;;;;;;;2.88;1.13;;;;;;;12.59;59.17;96463.53;6433999;46;20103;-73
2021/10/22 11:47:51;;;;;;;4.95;1.20;;;;;;;12.71;58.27;96454.97;6433597;46;20113;-72
2021/10/22 11:52:54;;;;;;;1.25;1.00;;;;;;;12.78;55.18;96449.06;6420634;46;20113;-72
2021/10/22 11:58:05;;;;;;;4.93;1.30;;;;;;;12.66;55.93;96441.78;6433369;46;20108;-72
2021/10/22 12:03:08;;;;;;;1.33;0.90;;;;;;;12.76;55.07;96446.00;6433839;46;20604;-71
2021/10/22 12:08:16;;;;;;;4.88;1.02;;;;;;;11.95;57.21;96447.25;6433292;46;20095;-71
2021/10/22 12:13:32;;;;;;;3.33;1.37;;;;;;;12.79;58.01;96433.97;6433397;46;20087;-72
2021/10/22 12:18:35;;;;;;;2.95;1.58;;;;;;;12.04;59.60;96443.66;6433487;46;20126;-71
2021/10/22 12:23:39;;;;;;;3.30;1.02;;;;;;;12.10;60.26;96434.25;6433039;46;20183;-71
2021/10/22 12:28:41;;;;;;;3.85;1.30;;;;;;;12.25;61.42;96434.34;6433008;46;20226;-72
2021/10/22 12:34:05;;;;;;;1.33;1.15;;;;;;;12.98;60.11;96425.50;6432979;46;20090;-71
2021/10/22 12:39:25;;;;;;;1.20;1.10;;;;;;;12.41;61.61;96433.94;6433617;46;20078;-71
2021/10/22 12:44:31;;;;;;;;;;;;;;;12.39;61.71;96430.88;6434070;46;20225;-73
2021/10/22 12:49:33;;;;;;;5.20;1.80;;;;;;;12.16;61.89;96449.00;6448167;46;20516;-71
2021/10/22 12:54:47;;;;;;;2.38;1.23;;;;;;;13.31;61.08;96446.34;6447351;46;20189;-73
2021/10/22 12:59:51;;;;;;;3.45;1.30;;;;;;;12.59;60.70;96453.22;6441461;46;20219;-71
2021/10/22 13:05:22;;;;;;;3.35;1.08;;;;;;;12.44;59.36;96451.63;6439558;46;20090;-71
2021/10/22 13:10:49;;;;;;;1.60;0.90;;;;;;;12.83;60.11;96453.97;6433097;46;20085;-73
2021/10/22 13:21:14;;;;;;;2.22;1.10;;;;;;;13.08;56.94;96454.72;6431923;46;20091;-72
2021/10/22 13:26:16;;;;;;;3.72;1.15;;;;;;;13.28;55.39;96465.94;6431036;46;20090;-72
2021/10/22 13:31:20;;;;;;;5.82;1.25;;;;;;;12.55;55.06;96457.41;6430281;46;20131;-71
2021/10/22 13:36:23;;;;;;;2.25;1.10;;;;;;;11.82;58.74;96476.38;6432238;46;20086;-71
2021/10/22 13:41:26;;;;;;;3.42;1.30;;;;;;;11.85;58.19;96469.91;6430523;46;20094;-70
2021/10/22 13:46:30;;;;;;;4.20;1.10;;;;;;;12.20;60.17;96462.69;6432417;46;20533;-71
2021/10/22 13:51:34;;;;;;;5.80;1.63;;;;;;;12.24;57.76;96466.03;6428789;46;20090;-69
2021/10/22 13:56:38;;;;;;;1.35;1.00;;;;;;;12.78;56.25;96468.47;6429222;46;20095;-71
2021/10/22 14:01:40;;;;;;;3.63;1.67;;;;;;;12.94;56.86;96468.06;6428204;46;20091;-69
2021/10/22 14:06:43;;;;;;;3.80;1.10;;;;;;;12.37;57.60;96474.16;6432701;46;20086;-72
2021/10/22 14:11:54;;;;;;;1.60;0.93;;;;;;;12.78;56.05;96467.69;6432359;46;20113;-71
2021/10/22 14:32:59;;;;;;;2.63;0.93;;;;;;;12.11;55.86;96457.19;6432534;46;20086;-72
2021/10/22 14:38:02;;;;;;;4.90;1.33;;;;;;;11.98;57.37;96465.72;6430679;46;20098;-70
2021/10/22 14:43:07;;;;;;;2.22;1.10;;;;;;;12.21;57.63;96480.84;6431202;46;20090;-72
2021/10/22 14:48:13;;;;;;;5.40;1.20;;;;;;;11.67;59.36;96481.00;6418911;46;20094;-72
2021/10/22 14:58:21;;;;;;;1.65;1.13;;;;;;;11.27;60.55;96487.53;6431580;46;20192;-72
2021/10/22 15:03:23;;;;;;;1.65;0.85;;;;;;;11.21;61.70;96485.84;6426483;46;20622;-72
2021/10/22 15:08:26;;;;;;;3.47;1.00;;;;;;;11.02;61.81;96476.78;6427882;46;20090;-72
2021/10/22 15:13:28;;;;;;;1.95;1.00;;;;;;;10.89;62.06;96475.41;6425473;46;20635;-70
2021/10/22 15:18:31;;;;;;;4.75;1.65;;;;;;;10.71;61.12;96488.00;6432579;46;20634;-70
2021/10/22 15:23:33;;;;;;;2.03;0.93;;;;;;;10.68;60.63;96488.91;6430049;46;20511;-70
2021/10/22 15:28:37;;;;;;;1.88;1.10;;;;;;;10.80;60.50;96478.94;6432559;46;20090;-70
2021/10/22 15:33:40;;;;;;;3.75;0.68;;;;;;;10.73;60.69;96493.06;6433117;46;20091;-70
2021/10/22 15:38:42;;;;;;;3.85;0.80;;;;;;;10.39;61.35;96482.25;6431853;46;20095;-70
2021/10/22 15:43:44;;;;;;;0.80;0.80;;;;;;;10.39;62.01;96496.06;6427387;46;20306;-69
2021/10/22 15:48:47;;;;;;;2.03;1.10;;;;;;;10.28;62.90;96493.72;6416076;46;20091;-71
2021/10/22 15:53:49;;;;;;;2.58;0.90;;;;;;;10.16;64.92;96485.53;6428609;46;20108;-71
2021/10/22 15:58:52;;;;;;;2.40;1.00;;;;;;;10.10;66.07;96488.91;6432218;46;20099;-71
2021/10/22 16:03:54;;;;;;;2.85;1.00;;;;;;;9.77;68.93;96492.59;6432900;46;20086;-71
2021/10/22 16:09:02;;;;;;;3.88;1.27;;;;;;;9.81;69.67;96502.28;6432638;46;20579;-71
2021/10/22 16:19:23;;;;;;;1.77;1.17;;;;;;;9.60;69.88;96511.34;6433408;46;20104;-71
2021/10/22 16:24:27;;;;;;;2.45;1.05;;;;;;;9.50;70.73;96520.03;6431176;46;20222;-71
2021/10/22 16:29:29;;;;;;;4.53;0.90;;;;;;;9.20;72.17;96532.53;6424601;46;20638;-72
2021/10/22 16:39:53;;;;;;;1.23;1.13;;;;;;;8.95;74.75;96551.91;6431051;46;20179;-72
2021/10/22 16:44:58;;;;;;;1.30;1.25;;;;;;;8.79;75.83;96555.59;6431779;46;20095;-73
2021/10/22 16:50:01;;;;;;;2.60;1.67;;;;;;;8.72;76.32;96564.09;6417503;46;20120;-69
2021/10/22 16:55:25;;;;;;;2.22;1.55;;;;;;;8.56;77.26;96559.50;6431474;46;20125;-73
2021/10/22 17:00:27;;;;;;;3.72;1.30;;;;;;;8.70;77.49;96580.28;6430971;46;20099;-69
2021/10/22 17:16:32;;;;;;;5.55;1.55;;;;;;;8.55;78.31;96612.25;6372908;46;20190;-69
2021/10/22 17:21:34;;;;;;;1.13;1.13;;;;;;;8.47;78.79;96628.25;6370904;46;20096;-72
2021/10/22 17:26:38;;;;;;;1.55;1.23;;;;;;;8.48;78.80;96635.28;6369786;46;20092;-71
2021/10/22 17:31:41;;;;;;;4.00;1.83;;;;;;;8.27;79.59;96649.72;6371528;46;20692;-72
2021/10/22 17:36:44;;;;;;;1.40;1.30;;;;;;;8.31;79.31;96644.88;6368587;46;20196;-72
2021/10/22 17:41:46;;;;;;;6.03;1.63;;;;;;;8.30;79.24;96662.59;6368029;46;20682;-71
2021/10/22 17:46:49;;;;;;;2.10;1.10;;;;;;;8.34;79.71;96676.25;6368799;46;20101;-73
2021/10/22 17:51:51;;;;;;;1.30;1.23;;;;;;;8.28;79.74;96683.50;6370097;46;20518;-70
2021/10/22 17:56:54;;;;;;;2.95;1.40;;;;;;;8.26;79.51;96691.44;6370136;46;20514;-72
2021/10/22 18:01:56;;;;;;;5.75;1.70;;;;;;;8.14;80.35;96695.66;6370839;46;20100;-71
2021/10/22 18:07:00;;;;;;;5.47;1.75;;;;;;;8.01;80.66;96694.09;6370739;46;20188;-71
2021/10/22 18:12:05;;;;;;;2.33;1.40;;;;;;;8.03;80.98;96710.97;6370552;46;20546;-71
2021/10/22 18:17:07;;;;;;;2.20;1.80;;;;;;;7.74;82.71;96719.19;6370819;46;20643;-72
2021/10/22 18:34:23;;;;;;;1.88;1.65;;;;;;;7.42;84.12;96728.28;6408508;46;20125;-71
2021/10/22 18:39:28;;;;;;;1.40;1.30;;;;;;;7.32;84.22;96736.81;6434814;46;20082;-70
2021/10/22 18:44:30;;;;;;;1.83;1.70;;;;;;;7.08;85.32;96741.69;6439492;46;20132;-70
2021/10/22 18:49:45;;;;;;;1.45;1.35;;;;;;;6.99;85.65;96747.00;6438904;46;20090;-70
2021/10/22 18:54:49;;;;;;;1.73;1.40;;;;;;;6.83;86.43;96747.78;6438715;46;20091;-72
2021/10/22 18:59:53;;;;;;;2.45;2.08;;;;;;;6.82;87.28;96759.19;6436304;46;20188;-71
2021/10/22 19:05:06;;;;;;;1.33;1.23;;;;;;;6.87;87.62;96756.72;6436944;46;20098;-69
2021/10/22 19:10:09;;;;;;;1.73;1.63;;;;;;;6.99;86.92;96772.50;6437154;46;20177;-70
2021/10/22 19:15:13;;;;;;;1.40;1.30;;;;;;;7.16;86.41;96782.34;6437153;46;20626;-70
2021/10/22 19:20:16;;;;;;;1.77;1.38;;;;;;;7.30;85.30;96783.19;6437501;46;20102;-71
2021/10/22 19:25:19;;;;;;;1.83;1.73;;;;;;;7.41;84.45;96797.44;6436771;46;20086;-72
2021/10/22 19:30:22;;;;;;;1.58;1.48;;;;;;;7.52;83.49;96784.22;6437622;46;20086;-71
2021/10/22 19:35:25;;;;;;;2.60;1.65;;;;;;;7.40;83.39;96801.38;6436566;46;20140;-72
2021/10/22 19:40:27;;;;;;;2.17;1.80;;;;;;;7.31;84.77;96810.25;6436231;46;20099;-71
2021/10/22 19:45:30;;;;;;;4.07;2.05;;;;;;;7.22;85.94;96823.81;6436168;46;20138;-71
2021/10/22 19:50:33;;;;;;;1.92;1.83;;;;;;;7.18;87.08;96829.41;6422665;46;20192;-72
2021/10/22 19:55:36;;;;;;;4.45;2.13;;;;;;;7.23;87.56;96837.16;6436069;46;20196;-71
2021/10/22 20:00:40;;;;;;;2.63;2.10;;;;;;;7.08;87.83;96840.63;6436638;46;20094;-72
2021/10/22 20:05:42;;;;;;;6.05;2.05;;;;;;;7.11;86.56;96857.03;6434534;46;20236;-72
2021/10/22 20:10:46;;;;;;;1.77;1.67;;;;;;;7.29;83.24;96855.84;6436932;46;20090;-71
2021/10/22 20:15:48;;;;;;;2.83;2.10;;;;;;;7.11;83.74;96859.00;6441949;46;20608;-73
2021/10/22 20:20:51;;;;;;;1.88;1.75;;;;;;;7.07;83.39;96858.31;6448751;46;20096;-73
2021/10/22 20:25:54;;;;;;;2.20;1.70;;;;;;;7.09;82.84;96867.69;6458681;46;20116;-72
2021/10/22 20:30:57;;;;;;;1.95;1.42;;;;;;;6.86;84.12;96867.78;6456265;46;20192;-71
2021/10/22 20:35:59;;;;;;;2.78;1.50;;;;;;;6.84;83.67;96874.91;6455753;46;20121;-71
2021/10/22 20:41:02;;;;;;;1.80;1.60;;;;;;;6.62;84.85;96890.25;6455817;46;20115;-73
2021/10/22 20:46:05;;;;;;;3.00;1.73;;;;;;;6.44;85.45;96896.09;6443293;46;20635;-71
2021/10/22 21:01:30;;;;;;;2.60;1.80;;;;;;;6.07;86.01;96912.84;6436592;46;20174;-70
2021/10/22 21:06:33;;;;;;;1.27;1.23;;;;;;;6.15;84.71;96914.28;6436125;46;20081;-71
2021/10/22 21:11:35;;;;;;;1.33;1.23;;;;;;;6.38;82.79;96911.50;6435567;46;20199;-71
2021/10/22 21:16:38;;;;;;;3.65;1.30;;;;;;;6.54;81.32;96908.84;6434254;46;20091;-71
2021/10/22 21:21:40;;;;;;;2.50;1.30;;;;;;;6.63;79.01;96909.06;6434408;46;20078;-72
2021/10/22 21:26:44;;;;;;;0.93;0.93;;;;;;;6.57;78.74;96901.72;6433769;46;20538;-72
2021/10/22 21:31:47;;;;;;;1.70;1.50;;;;;;;6.63;78.02;96911.81;6434451;46;20099;-70
2021/10/22 21:36:51;;;;;;;0.85;0.85;;;;;;;6.45;78.85;96905.88;6423165;46;20090;-70
2021/10/22 21:41:54;;;;;;;2.47;1.40;;;;;;;6.40;79.47;96907.13;6434976;46;20641;-70
2021/10/22 21:46:56;;;;;;;3.65;1.33;;;;;;;6.15;80.76;96903.31;6420620;46;20098;-72
2021/10/22 21:51:58;;;;;;;1.60;1.50;;;;;;;6.29;80.76;96919.50;6432544;46;20117;-74
2021/10/22 21:57:01;;;;;;;3.63;1.70;;;;;;;6.34;80.79;96924.50;6431345;46;20086;-75
2021/10/22 22:02:03;;;;;;;2.20;1.17;;;;;;;6.23;79.69;96921.97;6431750;46;20235;-72
2021/10/22 22:07:06;;;;;;;1.10;1.10;;;;;;;6.29;78.89;96923.03;6432510;46;20099;-73
2021/10/22 22:12:10;;;;;;;4.45;1.38;;;;;;;6.21;79.27;96918.09;6432363;46;20117;-71
2021/10/22 22:17:12;;;;;;;1.73;1.30;;;;;;;6.18;79.71;96924.41;6431774;46;20523;-73
2021/10/22 22:22:14;;;;;;;1.88;1.58;;;;;;;6.18;80.18;96919.69;6431541;46;20090;-71
2021/10/22 22:27:17;;;;;;;2.65;1.60;;;;;;;6.23;80.80;96918.44;6428689;46;20627;-72
2021/10/22 22:32:19;;;;;;;1.63;1.52;;;;;;;6.26;80.94;96923.09;6430627;46;20099;-72
2021/10/22 22:37:22;;;;;;;1.50;1.40;;;;;;;6.22;82.14;96927.88;6432569;46;20086;-70
2021/10/22 22:42:25;;;;;;;4.75;1.65;;;;;;;6.20;83.10;96938.47;6433002;46;20507;-73
2021/10/22 22:47:27;;;;;;;1.70;1.50;;;;;;;6.14;83.71;96937.41;6432951;46;20085;-71
2021/10/22 22:52:29;;;;;;;3.13;1.90;;;;;;;6.09;84.12;96938.66;6433032;46;20245;-74
2021/10/22 22:57:33;;;;;;;3.08;1.25;;;;;;;6.15;84.05;96944.47;6432509;46;20091;-72
2021/10/22 23:02:36;;;;;;;1.85;1.42;;;;;;;5.96;84.59;96959.66;6432594;46;20108;-72
2021/10/22 23:07:39;;;;;;;1.65;1.55;;;;;;;5.86;85.19;96966.06;6432778;46;20218;-73
2021/10/22 23:12:41;;;;;;;2.15;1.85;;;;;;;5.61;86.93;96960.94;6431747;46;20289;-73
2021/10/22 23:17:44;;;;;;;1.65;1.52;;;;;;;5.64;87.13;96956.59;6432161;46;20649;-72
2021/10/22 23:22:47;;;;;;;2.33;1.85;;;;;;;5.64;86.46;96964.81;6432168;46;20623;-71
2021/10/22 23:27:49;;;;;;;2.60;1.80;;;;;;;5.51;87.05;96970.09;6432389;46;20091;-72
2021/10/22 23:32:54;;;;;;;2.63;1.52;;;;;;;5.61;86.78;96968.38;6432253;46;20117;-72
2021/10/22 23:37:56;;;;;;;2.55;1.75;;;;;;;5.80;85.63;96962.22;6433047;46;20138;-73
2021/10/22 23:42:59;;;;;;;4.13;1.52;;;;;;;5.82;84.78;96960.63;6434381;46;20673;-73
2021/10/22 23:48:01;;;;;;;1.50;1.40;;;;;;;5.90;84.18;96952.31;6435177;46;20647;-73
2021/10/22 23:53:03;;;;;;;1.85;1.75;;;;;;;5.91;83.91;96973.06;6436584;46;20098;-74
2021/10/22 23:58:07;;;;;;;1.60;1.20;;;;;;;5.79;83.56;96963.41;6434280;46;20090;-73
